createdAt,value
2018-11-23T00:01:54.412Z,87.23
2018-11-23T00:04:23.307Z,87.17
2018-11-23T00:06:52.221Z,87.34
2018-11-23T00:09:21.708Z,86.89
2018-11-23T00:11:50.523Z,86.76
2018-11-23T00:14:19.405Z,86.18
2018-11-23T00:16:48.271Z,86.66
2018-11-23T00:19:17.100Z,86.41
2018-11-23T00:21:45.842Z,86.34
2018-11-23T00:24:14.677Z,86.72
2018-11-23T00:26:43.482Z,86.39
2018-11-23T00:29:12.308Z,86.95
2018-11-23T00:31:41.072Z,87.17
2018-11-23T00:34:09.832Z,87.39
2018-11-23T00:36:38.651Z,87.66
2018-11-23T00:39:08.224Z,87.42
2018-11-23T00:41:37.400Z,87.39
2018-11-23T00:44:06.781Z,87.43
2018-11-23T00:46:35.619Z,87.39
2018-11-23T00:49:04.438Z,87.22
2018-11-23T00:51:33.242Z,88.15
2018-11-23T00:54:02.105Z,88.36
2018-11-23T00:56:30.906Z,88.59
2018-11-23T00:58:59.733Z,88.37
2018-11-23T01:01:32.042Z,88.33
2018-11-23T01:04:00.857Z,88.37
2018-11-23T01:06:29.777Z,88.40
2018-11-23T01:08:58.570Z,88.09
2018-11-23T01:11:27.764Z,87.97
2018-11-23T01:13:56.605Z,87.54
2018-11-23T01:16:25.455Z,88.17
2018-11-23T01:18:54.226Z,87.66
2018-11-23T01:21:27.813Z,87.45
2018-11-23T01:23:56.619Z,87.77
2018-11-23T01:26:25.490Z,87.89
2018-11-23T01:28:54.913Z,87.76
2018-11-23T01:31:23.775Z,87.56
2018-11-23T01:33:52.574Z,87.46
2018-11-23T01:36:21.438Z,87.74
2018-11-23T01:38:56.792Z,87.21
2018-11-23T01:41:25.584Z,86.74
2018-11-23T01:43:54.348Z,86.59
2018-11-23T01:46:23.142Z,86.46
2018-11-23T01:48:51.933Z,86.50
2018-11-23T01:51:20.676Z,86.80
2018-11-23T01:53:49.438Z,86.93
2018-11-23T01:56:18.347Z,86.83
2018-11-23T01:58:47.194Z,86.89
2018-11-23T02:01:16.009Z,86.77
2018-11-23T02:03:44.807Z,86.42
2018-11-23T02:06:13.602Z,86.48
2018-11-23T02:08:42.382Z,86.63
2018-11-23T02:11:11.168Z,86.71
2018-11-23T02:13:39.970Z,86.49
2018-11-23T02:16:08.744Z,86.44
2018-11-23T02:18:37.581Z,86.26
2018-11-23T02:21:06.686Z,85.19
2018-11-23T02:23:35.528Z,85.42
2018-11-23T02:26:04.455Z,85.54
2018-11-23T02:28:33.307Z,85.25
2018-11-23T02:31:08.485Z,85.22
2018-11-23T02:33:39.653Z,85.43
2018-11-23T02:36:09.432Z,85.42
2018-11-23T02:38:38.352Z,85.35
2018-11-23T02:41:07.081Z,85.49
2018-11-23T02:43:35.854Z,85.10
2018-11-23T02:46:05.005Z,84.90
2018-11-23T02:48:33.769Z,84.58
2018-11-23T02:51:02.591Z,85.00
2018-11-23T02:53:31.349Z,85.02
2018-11-23T02:56:00.127Z,84.71
2018-11-23T02:58:28.927Z,85.03
2018-11-23T03:00:57.738Z,85.05
2018-11-23T03:03:26.592Z,85.04
2018-11-23T03:05:55.386Z,85.26
2018-11-23T03:08:24.148Z,85.36
2018-11-23T03:10:53.008Z,85.29
2018-11-23T03:13:21.934Z,85.06
2018-11-23T03:15:50.760Z,85.09
2018-11-23T03:18:19.617Z,85.00
2018-11-23T03:20:48.576Z,85.22
2018-11-23T03:23:17.414Z,84.84
2018-11-23T03:25:46.262Z,85.34
2018-11-23T03:28:15.059Z,85.29
2018-11-23T03:30:44.275Z,85.35
2018-11-23T03:33:13.061Z,85.05
2018-11-23T03:35:42.075Z,85.06
2018-11-23T03:38:11.701Z,85.07
2018-11-23T03:40:40.561Z,84.88
2018-11-23T03:43:09.403Z,84.56
2018-11-23T03:45:39.364Z,84.52
2018-11-23T03:48:08.619Z,84.66
2018-11-23T03:50:37.479Z,84.88
2018-11-23T03:53:06.351Z,84.77
2018-11-23T03:55:35.171Z,84.75
2018-11-23T03:58:04.059Z,84.81
2018-11-23T04:00:32.802Z,85.00
2018-11-23T04:03:01.570Z,85.05
2018-11-23T04:05:30.533Z,85.36
2018-11-23T04:07:59.449Z,85.00
2018-11-23T04:10:28.293Z,84.96
2018-11-23T04:12:57.080Z,84.87
2018-11-23T04:15:25.964Z,84.91
2018-11-23T04:17:54.827Z,84.98
2018-11-23T04:20:23.620Z,84.93
2018-11-23T04:22:52.436Z,84.94
2018-11-23T04:25:21.232Z,84.79
2018-11-23T04:27:50.650Z,85.00
2018-11-23T04:30:20.416Z,85.37
2018-11-23T04:32:49.419Z,85.14
2018-11-23T04:35:22.018Z,85.03
2018-11-23T04:37:53.619Z,84.79
2018-11-23T04:40:22.524Z,84.63
2018-11-23T04:42:51.369Z,84.12
2018-11-23T04:45:20.403Z,84.16
2018-11-23T04:47:49.215Z,84.13
2018-11-23T04:50:18.177Z,84.19
2018-11-23T04:52:47.021Z,84.06
2018-11-23T04:55:15.879Z,84.27
2018-11-23T04:57:45.005Z,84.26
2018-11-23T05:00:16.089Z,84.48
2018-11-23T05:02:45.501Z,84.37
2018-11-23T05:05:14.685Z,84.20
2018-11-23T05:07:45.262Z,84.47
2018-11-23T05:10:15.135Z,84.41
2018-11-23T05:12:45.667Z,84.22
2018-11-23T05:15:16.010Z,84.03
2018-11-23T05:17:44.996Z,83.96
2018-11-23T05:20:14.495Z,83.58
2018-11-23T05:22:43.612Z,83.51
2018-11-23T05:25:13.365Z,83.73
2018-11-23T05:27:42.211Z,83.85
2018-11-23T05:30:14.514Z,84.65
2018-11-23T05:32:43.946Z,84.89
2018-11-23T05:35:14.158Z,85.09
2018-11-23T05:37:43.036Z,85.15
2018-11-23T05:40:14.428Z,84.84
2018-11-23T05:42:44.145Z,84.96
2018-11-23T05:45:18.261Z,84.96
2018-11-23T05:47:47.318Z,84.72
2018-11-23T05:50:17.998Z,84.83
2018-11-23T05:52:46.981Z,84.43
2018-11-23T05:55:15.764Z,84.40
2018-11-23T05:57:44.654Z,84.63
2018-11-23T06:00:17.990Z,84.49
2018-11-23T06:02:48.099Z,84.54
2018-11-23T06:05:17.077Z,84.21
2018-11-23T06:07:45.906Z,84.68
2018-11-23T06:10:16.380Z,84.31
2018-11-23T06:12:45.173Z,84.35
2018-11-23T06:15:16.368Z,84.01
2018-11-23T06:17:45.641Z,83.63
2018-11-23T06:20:16.193Z,83.48
2018-11-23T06:22:46.070Z,83.29
2018-11-23T06:25:48.286Z,83.15
2018-11-23T06:28:17.131Z,83.09
2018-11-23T06:30:46.024Z,82.90
2018-11-23T06:33:32.329Z,83.29
2018-11-23T06:36:01.202Z,83.36
2018-11-23T06:38:30.358Z,83.34
2018-11-23T06:40:59.444Z,83.27
2018-11-23T06:43:28.359Z,83.75
2018-11-23T06:45:58.108Z,83.51
2018-11-23T06:48:27.026Z,82.91
2018-11-23T06:50:56.235Z,83.25
2018-11-23T06:53:25.229Z,82.97
2018-11-23T06:55:54.248Z,83.11
2018-11-23T06:58:23.312Z,82.53
2018-11-23T07:00:52.145Z,82.47
2018-11-23T07:03:20.957Z,81.99
2018-11-23T07:05:49.804Z,82.01
2018-11-23T07:08:18.619Z,81.52
2018-11-23T07:10:47.536Z,81.57
2018-11-23T07:13:16.413Z,81.07
2018-11-23T07:15:45.610Z,81.12
2018-11-23T07:18:14.422Z,80.78
2018-11-23T07:20:43.280Z,80.83
2018-11-23T07:23:12.099Z,80.62
2018-11-23T07:25:40.844Z,80.39
2018-11-23T07:28:15.468Z,80.28
2018-11-23T07:30:38.646Z,80.62
2018-11-23T07:33:07.519Z,80.56
2018-11-23T07:35:36.373Z,80.62
2018-11-23T07:38:05.549Z,80.39
2018-11-23T07:40:46.855Z,80.63
2018-11-23T07:43:15.748Z,80.23
2018-11-23T07:45:44.615Z,80.26
2018-11-23T07:48:13.489Z,79.87
2018-11-23T07:50:42.327Z,80.59
2018-11-23T07:53:11.509Z,80.80
2018-11-23T07:55:40.343Z,80.27
2018-11-23T07:58:10.005Z,79.97
2018-11-23T08:00:38.858Z,80.08
2018-11-23T08:03:07.657Z,79.54
2018-11-23T08:05:36.510Z,79.40
2018-11-23T08:08:06.384Z,79.61
2018-11-23T08:10:34.344Z,80.29
2018-11-23T08:13:03.207Z,80.05
2018-11-23T08:15:32.026Z,80.35
2018-11-23T08:18:00.852Z,80.29
2018-11-23T08:20:29.707Z,80.27
2018-11-23T08:22:58.551Z,80.39
2018-11-23T08:25:27.505Z,80.29
2018-11-23T08:27:57.227Z,80.39
2018-11-23T08:30:28.352Z,80.62
2018-11-23T08:32:57.534Z,80.34
2018-11-23T08:35:26.367Z,79.84
2018-11-23T08:37:55.155Z,79.59
2018-11-23T08:40:25.374Z,79.75
2018-11-23T08:42:54.733Z,79.58
2018-11-23T08:45:24.854Z,79.31
2018-11-23T08:47:53.712Z,79.23
2018-11-23T08:50:24.720Z,78.67
2018-11-23T08:52:53.577Z,78.98
2018-11-23T08:55:22.681Z,78.88
2018-11-23T08:57:51.561Z,78.87
2018-11-23T09:00:28.064Z,78.36
2018-11-23T09:02:58.584Z,78.32
2018-11-23T09:05:27.492Z,78.18
2018-11-23T09:07:57.110Z,78.13
2018-11-23T09:10:27.600Z,77.74
2018-11-23T09:12:58.002Z,77.58
2018-11-23T09:15:26.880Z,77.01
2018-11-23T09:17:55.738Z,77.20
2018-11-23T09:20:24.646Z,76.44
2018-11-23T09:22:53.465Z,76.36
2018-11-23T09:25:23.337Z,76.08
2018-11-23T09:27:52.197Z,76.17
2018-11-23T09:30:23.447Z,76.21
2018-11-23T09:32:53.123Z,75.85
2018-11-23T09:35:21.955Z,75.54
2018-11-23T09:37:51.288Z,76.19
2018-11-23T09:40:21.724Z,75.49
2018-11-23T09:42:50.870Z,75.50
2018-11-23T09:45:22.038Z,75.71
2018-11-23T09:47:52.269Z,75.06
2018-11-23T09:50:22.225Z,75.12
2018-11-23T09:52:52.302Z,75.12
2018-11-23T09:55:21.810Z,75.36
2018-11-23T09:57:50.640Z,75.42
2018-11-23T10:00:21.541Z,75.27
2018-11-23T10:02:51.527Z,74.65
2018-11-23T10:05:22.125Z,74.26
2018-11-23T10:07:52.409Z,74.42
2018-11-23T10:10:21.956Z,74.12
2018-11-23T10:12:51.149Z,74.02
2018-11-23T10:15:20.689Z,73.43
2018-11-23T10:17:49.573Z,73.02
2018-11-23T10:20:20.792Z,73.21
2018-11-23T10:22:49.626Z,73.90
2018-11-23T10:25:21.807Z,73.04
2018-11-23T10:27:50.620Z,73.73
2018-11-23T10:30:22.255Z,73.12
2018-11-23T10:32:52.271Z,72.94
2018-11-23T10:35:23.941Z,73.27
2018-11-23T10:37:54.581Z,72.59
2018-11-23T10:40:24.684Z,72.90
2018-11-23T10:42:53.507Z,73.43
2018-11-23T10:45:24.887Z,72.73
2018-11-23T10:47:54.381Z,72.53
2018-11-23T10:50:24.507Z,72.06
2018-11-23T10:52:53.351Z,72.05
2018-11-23T10:55:23.553Z,71.82
2018-11-23T10:57:52.956Z,71.98
2018-11-23T11:00:27.094Z,72.52
2018-11-23T11:03:01.355Z,71.85
2018-11-23T11:05:35.388Z,71.52
2018-11-23T11:08:04.989Z,71.32
2018-11-23T11:10:33.785Z,71.54
2018-11-23T11:13:02.664Z,71.51
2018-11-23T11:15:31.617Z,71.21
2018-11-23T11:18:00.379Z,71.04
2018-11-23T11:20:29.176Z,70.32
2018-11-23T11:22:57.943Z,70.85
2018-11-23T11:25:26.798Z,70.32
2018-11-23T11:27:55.574Z,70.79
2018-11-23T11:30:24.427Z,70.96
2018-11-23T11:32:53.235Z,71.22
2018-11-23T11:35:22.024Z,70.69
2018-11-23T11:37:50.875Z,70.41
2018-11-23T11:40:20.733Z,70.83
2018-11-23T11:42:49.497Z,70.67
2018-11-23T11:45:19.209Z,70.30
2018-11-23T11:47:48.499Z,71.22
2018-11-23T11:50:17.394Z,70.89
2018-11-23T11:52:47.710Z,71.66
2018-11-23T11:55:17.946Z,71.85
2018-11-23T11:57:47.505Z,71.23
2018-11-23T12:00:19.801Z,71.31
2018-11-23T12:02:48.920Z,71.52
2018-11-23T12:05:18.350Z,71.69
2018-11-23T12:07:47.196Z,72.72
2018-11-23T12:10:22.248Z,72.75
2018-11-23T12:12:51.693Z,72.39
2018-11-23T12:15:20.519Z,72.32
2018-11-23T12:17:49.362Z,72.05
2018-11-23T12:20:20.680Z,71.43
2018-11-23T12:22:49.694Z,71.73
2018-11-23T12:25:19.216Z,71.05
2018-11-23T12:27:48.049Z,70.94
2018-11-23T12:30:18.268Z,71.05
2018-11-23T12:32:48.317Z,70.73
2018-11-23T12:35:18.008Z,70.40
2018-11-23T12:37:46.922Z,70.80
2018-11-23T12:40:17.318Z,70.47
2018-11-23T12:42:46.767Z,70.23
2018-11-23T12:45:17.366Z,70.90
2018-11-23T12:47:46.311Z,69.98
2018-11-23T12:50:17.293Z,70.43
2018-11-23T12:52:46.283Z,70.75
2018-11-23T12:55:15.616Z,70.77
2018-11-23T12:57:44.577Z,70.61
2018-11-23T13:00:29.705Z,70.23
2018-11-23T13:03:00.076Z,69.83
2018-11-23T13:05:29.792Z,69.96
2018-11-23T13:07:59.927Z,70.69
2018-11-23T13:10:29.126Z,70.13
2018-11-23T13:12:58.579Z,70.25
2018-11-23T13:15:27.568Z,70.57
2018-11-23T13:17:56.928Z,70.04
2018-11-23T13:20:25.779Z,70.39
2018-11-23T13:22:54.658Z,70.11
2018-11-23T13:25:25.081Z,70.23
2018-11-23T13:27:53.973Z,70.35
2018-11-23T13:30:24.360Z,71.06
2018-11-23T13:32:53.393Z,71.26
2018-11-23T13:35:22.616Z,70.91
2018-11-23T13:37:51.458Z,70.93
2018-11-23T13:40:22.479Z,71.28
2018-11-23T13:42:51.947Z,72.16
2018-11-23T13:45:22.159Z,72.85
2018-11-23T13:47:51.019Z,73.45
2018-11-23T13:50:21.115Z,74.10
2018-11-23T13:52:50.936Z,74.28
2018-11-23T13:55:19.773Z,74.55
2018-11-23T13:57:48.599Z,74.47
2018-11-23T14:00:20.430Z,74.33
2018-11-23T14:02:49.391Z,74.04
2018-11-23T14:05:20.385Z,74.05
2018-11-23T14:07:50.526Z,74.29
2018-11-23T14:10:21.154Z,74.75
2018-11-23T14:12:50.386Z,75.26
2018-11-23T14:15:20.748Z,75.00
2018-11-23T14:17:50.588Z,74.90
2018-11-23T14:20:20.090Z,75.14
2018-11-23T14:22:49.316Z,75.54
2018-11-23T14:25:20.891Z,75.43
2018-11-23T14:27:50.899Z,75.57
2018-11-23T14:30:21.584Z,75.62
2018-11-23T14:32:50.654Z,75.51
2018-11-23T14:35:22.712Z,75.69
2018-11-23T14:37:52.253Z,75.26
2018-11-23T14:40:21.125Z,75.49
2018-11-23T14:42:51.163Z,75.43
2018-11-23T14:45:25.868Z,75.83
2018-11-23T14:47:56.049Z,75.48
2018-11-23T14:50:27.569Z,75.31
2018-11-23T14:52:57.122Z,74.83
2018-11-23T14:55:26.886Z,75.28
2018-11-23T14:57:56.597Z,74.66
2018-11-23T15:00:28.828Z,74.95
2018-11-23T15:02:59.162Z,73.96
2018-11-23T15:05:28.047Z,74.22
2018-11-23T15:07:56.934Z,73.81
2018-11-23T15:10:27.127Z,74.53
2018-11-23T15:12:57.358Z,74.52
2018-11-23T15:15:27.657Z,74.62
2018-11-23T15:17:57.160Z,74.89
2018-11-23T15:20:30.773Z,74.64
2018-11-23T15:23:02.030Z,75.08
2018-11-23T15:25:36.261Z,74.74
2018-11-23T15:30:49.869Z,74.37
2018-11-23T15:33:19.285Z,74.45
2018-11-23T15:35:48.122Z,74.29
2018-11-23T15:38:18.543Z,74.37
2018-11-23T15:40:47.601Z,74.90
2018-11-23T15:43:18.299Z,74.64
2018-11-23T15:45:47.190Z,74.42
2018-11-23T15:48:22.341Z,74.78
2018-11-23T15:50:51.135Z,74.76
2018-11-23T15:53:19.925Z,75.10
2018-11-23T15:55:48.783Z,75.56
2018-11-23T15:58:18.459Z,75.11
2018-11-23T16:00:48.577Z,75.28
2018-11-23T16:03:17.877Z,75.10
2018-11-23T16:05:46.697Z,75.29
2018-11-23T16:08:18.340Z,75.16
2018-11-23T16:10:47.561Z,75.18
2018-11-23T16:13:16.394Z,75.08
2018-11-23T16:15:45.287Z,75.31
2018-11-23T16:18:14.345Z,75.28
2018-11-23T16:20:44.800Z,75.23
2018-11-23T16:23:18.094Z,75.12
2018-11-23T16:25:48.027Z,76.24
2018-11-23T16:28:16.930Z,76.55
2018-11-23T16:30:47.227Z,76.67
2018-11-23T16:33:18.878Z,76.19
2018-11-23T16:35:47.714Z,76.24
2018-11-23T16:38:18.320Z,76.25
2018-11-23T16:40:50.922Z,76.61
2018-11-23T16:43:19.814Z,76.15
2018-11-23T16:45:48.929Z,76.37
2018-11-23T16:48:18.629Z,76.07
2018-11-23T16:50:47.554Z,75.72
2018-11-23T16:53:16.431Z,76.06
2018-11-23T16:55:45.291Z,76.26
2018-11-23T16:58:14.616Z,76.29
2018-11-23T17:00:44.882Z,76.51
2018-11-23T17:03:15.116Z,76.04
2018-11-23T17:05:46.383Z,75.73
2018-11-23T17:08:15.356Z,75.69
2018-11-23T17:10:44.291Z,75.75
2018-11-23T17:13:13.084Z,75.89
2018-11-23T17:15:41.903Z,76.21
2018-11-23T17:18:11.859Z,76.53
2018-11-23T17:20:41.300Z,76.61
2018-11-23T17:23:11.129Z,76.90
2018-11-23T17:25:39.966Z,76.89
2018-11-23T17:28:10.976Z,76.66
2018-11-23T17:33:07.930Z,77.36
2018-11-23T17:35:36.818Z,76.04
2018-11-23T17:38:06.210Z,76.02
2018-11-23T17:40:36.741Z,75.66
2018-11-23T17:43:06.159Z,75.90
2018-11-23T17:45:35.171Z,76.21
2018-11-23T17:48:04.029Z,75.89
2018-11-23T17:50:34.189Z,76.11
2018-11-23T17:53:02.996Z,76.12
2018-11-23T17:55:31.829Z,76.40
2018-11-23T17:58:00.681Z,75.54
2018-11-23T18:00:38.505Z,75.37
2018-11-23T18:03:01.906Z,75.38
2018-11-23T18:05:31.634Z,75.80
2018-11-23T18:08:01.126Z,75.21
2018-11-23T18:10:31.276Z,74.49
2018-11-23T18:13:06.695Z,74.42
2018-11-23T18:15:36.012Z,74.49
2018-11-23T18:18:06.456Z,74.51
2018-11-23T18:20:35.593Z,74.63
2018-11-23T18:23:05.502Z,74.90
2018-11-23T18:25:36.101Z,74.35
2018-11-23T18:28:04.966Z,74.66
2018-11-23T18:30:34.869Z,75.26
2018-11-23T18:33:05.456Z,75.38
2018-11-23T18:35:34.297Z,75.43
2018-11-23T18:38:03.129Z,75.66
2018-11-23T18:40:37.131Z,75.82
2018-11-23T18:43:00.911Z,75.83
2018-11-23T18:45:29.762Z,76.21
2018-11-23T18:47:58.570Z,76.08
2018-11-23T18:50:27.336Z,76.01
2018-11-23T18:52:56.123Z,75.87
2018-11-23T18:55:25.016Z,75.74
2018-11-23T18:57:53.875Z,76.30
2018-11-23T19:00:23.023Z,76.33
2018-11-23T19:02:51.829Z,76.22
2018-11-23T19:05:22.966Z,76.17
2018-11-23T19:07:51.717Z,76.23
2018-11-23T19:10:20.622Z,76.54
2018-11-23T19:12:49.481Z,76.78
2018-11-23T19:15:25.348Z,76.63
2018-11-23T19:17:48.105Z,76.64
2018-11-23T19:20:20.272Z,76.58
2018-11-23T19:22:51.331Z,76.58
2018-11-23T19:25:20.188Z,76.57
2018-11-23T19:27:49.059Z,76.58
2018-11-23T19:30:27.716Z,76.21
2018-11-23T19:32:49.008Z,76.09
2018-11-23T19:35:17.971Z,76.41
2018-11-23T19:37:46.912Z,76.38
2018-11-23T19:40:16.728Z,76.21
2018-11-23T19:42:45.835Z,76.52
2018-11-23T19:45:15.727Z,76.37
2018-11-23T19:47:44.709Z,75.86
2018-11-23T19:50:17.141Z,76.00
2018-11-23T19:52:46.127Z,76.06
2018-11-23T19:55:16.331Z,76.44
2018-11-23T19:57:45.127Z,76.52
2018-11-23T20:00:23.150Z,76.63
2018-11-23T20:02:52.095Z,76.53
2018-11-23T20:05:21.076Z,76.92
2018-11-23T20:07:51.524Z,77.13
2018-11-23T20:10:21.721Z,77.09
2018-11-23T20:12:51.964Z,77.28
2018-11-23T20:15:20.981Z,77.73
2018-11-23T20:17:49.788Z,77.52
2018-11-23T20:20:18.673Z,77.55
2018-11-23T20:22:48.476Z,77.62
2018-11-23T20:25:18.612Z,77.84
2018-11-23T20:27:48.457Z,77.86
2018-11-23T20:30:18.195Z,77.86
2018-11-23T20:32:47.413Z,77.69
2018-11-23T20:35:17.337Z,77.49
2018-11-23T20:37:46.178Z,77.98
2018-11-23T20:40:16.078Z,78.12
2018-11-23T20:42:45.103Z,78.30
2018-11-23T20:45:14.542Z,78.81
2018-11-23T20:47:43.405Z,78.83
2018-11-23T20:50:13.988Z,78.70
2018-11-23T20:52:42.784Z,78.64
2018-11-23T20:55:14.503Z,78.88
2018-11-23T20:57:43.331Z,79.10
2018-11-23T21:00:15.856Z,78.77
2018-11-23T21:02:45.195Z,78.97
2018-11-23T21:05:15.198Z,78.98
2018-11-23T21:07:44.001Z,78.94
2018-11-23T21:10:20.080Z,78.86
2018-11-23T21:12:43.951Z,79.40
2018-11-23T21:15:23.379Z,79.82
2018-11-23T21:17:52.276Z,79.92
2018-11-23T21:20:21.175Z,80.88
2018-11-23T21:22:50.026Z,80.71
2018-11-23T21:25:18.817Z,81.13
2018-11-23T21:27:47.619Z,80.91
2018-11-23T21:30:21.245Z,80.71
2018-11-23T21:32:50.446Z,80.79
2018-11-23T21:35:19.832Z,80.22
2018-11-23T21:37:49.114Z,80.74
2018-11-23T21:40:18.333Z,79.91
2018-11-23T21:42:47.260Z,79.54
2018-11-23T21:45:17.004Z,80.41
2018-11-23T21:47:45.870Z,80.19
2018-11-23T21:50:16.701Z,80.36
2018-11-23T21:52:45.585Z,80.57
2018-11-23T21:55:16.546Z,80.45
2018-11-23T21:57:45.745Z,79.86
2018-11-23T22:00:15.952Z,80.24
2018-11-23T22:02:45.267Z,79.98
2018-11-23T22:05:14.127Z,79.66
2018-11-23T22:07:42.984Z,79.70
2018-11-23T22:10:19.263Z,79.62
2018-11-23T22:12:48.157Z,79.90
2018-11-23T22:15:19.303Z,79.77
2018-11-23T22:17:48.599Z,79.81
2018-11-23T22:20:18.507Z,80.06
2018-11-23T22:22:47.337Z,80.59
2018-11-23T22:25:17.551Z,80.89
2018-11-23T22:27:46.418Z,81.10
2018-11-23T22:30:17.569Z,81.24
2018-11-23T22:32:46.448Z,81.17
2018-11-23T22:35:15.255Z,80.96
2018-11-23T22:37:44.538Z,81.24
2018-11-23T22:40:14.900Z,81.33
2018-11-23T22:42:46.483Z,80.83
2018-11-23T22:45:16.051Z,80.72
2018-11-23T22:47:44.986Z,80.82
2018-11-23T22:50:16.045Z,80.75
2018-11-23T22:52:44.856Z,81.15
2018-11-23T22:55:15.161Z,81.27
2018-11-23T22:57:43.995Z,80.43
2018-11-23T23:00:20.276Z,80.35
2018-11-23T23:02:49.745Z,80.53
2018-11-23T23:05:19.594Z,79.82
2018-11-23T23:07:48.386Z,79.50
2018-11-23T23:10:17.225Z,78.65
2018-11-23T23:12:46.032Z,78.86
2018-11-23T23:15:14.844Z,79.20
2018-11-23T23:17:43.747Z,78.90
2018-11-23T23:20:14.783Z,79.25
2018-11-23T23:22:43.696Z,79.23
2018-11-23T23:25:13.561Z,78.99
2018-11-23T23:27:42.352Z,78.14
2018-11-23T23:30:12.319Z,77.97
2018-11-23T23:32:41.175Z,77.96
2018-11-23T23:35:11.221Z,77.91
2018-11-23T23:37:40.394Z,78.81
2018-11-23T23:40:12.077Z,79.16
2018-11-23T23:42:40.882Z,79.46
2018-11-23T23:45:12.431Z,79.11
2018-11-23T23:47:41.324Z,79.54
2018-11-23T23:50:11.506Z,79.25
2018-11-23T23:52:40.329Z,78.69
2018-11-23T23:55:09.925Z,78.37
2018-11-23T23:57:39.525Z,78.94
